HomeShort term forecast

Short term forecast

Graphical weather forecast for the next 48 hours for Montreal:
Short term forecast
This weather forecast is automatically refreshed every 3 hours.

Hourly Experimental Forecast for the next 48 hours

Overall summary: Foggy this afternoon and later this afternoon.

 Date & Hour   Temp   Feel   Baro   Hum   Speed & Bearing   Wind Gust   Precip.%   Precip.   Visibility   Cloud cover   Conditions 
 04/12/2021 - 15:00  -4.2°C  -7.9°C  1015.2 hPa  74%  8.6 km/h   13.8 km/h  22%  0.30 mm/h  3.1km  100%  Overcast 
 04/12/2021 - 16:00  -4.5°C  -8.4°C  1015.1 hPa  75%  9.1 km/h   15.5 km/h  9%  0.12 mm/h  5.5km  100%  Overcast 
 04/12/2021 - 17:00  -5.0°C  -8.4°C  1016.0 hPa  77%  7.6 km/h   12.3 km/h  6%  0.17 mm/h  9.6km  100%  Overcast 
 04/12/2021 - 18:00  -5.3°C  -8.8°C  1016.6 hPa  77%  7.7 km/h   11.8 km/h  3%  0.06 mm/h  10.1km  99%  Overcast 
 04/12/2021 - 19:00  -5.6°C  -8.4°C  1016.6 hPa  81%  5.8 km/h   8.2 km/h  4%  0.07 mm/h  12.5km  99%  Overcast 
 04/12/2021 - 20:00  -6.2°C  -8.7°C  1016.8 hPa  80%  5.1 km/h   7.0 km/h  3%  0.04 mm/h  11.9km  95%  Overcast 
 04/12/2021 - 21:00  -6.4°C  -9.1°C  1018.0 hPa  78%  5.4 km/h   7.6 km/h  3%  0.09 mm/h  6.5km  89%  Overcast 
 04/12/2021 - 22:00  -5.9°C  -8.5°C  1018.6 hPa  78%  5.4 km/h   10.0 km/h  4%  0.12 mm/h  5.8km  71%  Mostly Cloudy 
 04/12/2021 - 23:00  -5.9°C  -8.7°C  1018.9 hPa  74%  5.9 km/h   12.0 km/h  3%  0.09 mm/h  7.2km  70%  Mostly Cloudy 
 05/12/2021 - 00:00  -5.7°C  -9.3°C  1018.8 hPa  73%  7.7 km/h   19.2 km/h  2%  0.03 mm/h  15.1km  69%  Mostly Cloudy 
 05/12/2021 - 01:00  -5.4°C  -9.5°C  1020.2 hPa  72%  9.0 km/h   25.0 km/h  2%  0.02 mm/h  11.0km  71%  Mostly Cloudy 
 05/12/2021 - 02:00  -5.3°C  -9.9°C  1021.3 hPa  73%  10.8 km/h   23.8 km/h  2%  0.01 mm/h  16.1km  73%  Mostly Cloudy 
 05/12/2021 - 03:00  -5.6°C  -10.2°C  1021.8 hPa  77%  10.6 km/h   26.9 km/h  0%  --  15.6km  58%  Partly Cloudy 
 05/12/2021 - 04:00  -5.8°C  -10.6°C  1023.3 hPa  80%  11.1 km/h   27.5 km/h  2%  0.01 mm/h  16.1km  43%  Partly Cloudy 
 05/12/2021 - 05:00  -6.8°C  -11.6°C  1024.2 hPa  82%  10.5 km/h   25.5 km/h  0%  --  16.1km  40%  Partly Cloudy 
 05/12/2021 - 06:00  -7.4°C  -11.9°C  1025.5 hPa  84%  9.4 km/h   24.2 km/h  0%  --  16.1km  39%  Partly Cloudy 
 05/12/2021 - 07:00  -7.3°C  -11.7°C  1026.5 hPa  87%  8.8 km/h   21.7 km/h  0%  --  16.1km  60%  Mostly Cloudy 
 05/12/2021 - 08:00  -7.2°C  -11.4°C  1027.4 hPa  86%  8.6 km/h   20.8 km/h  0%  --  15.8km  47%  Partly Cloudy 
 05/12/2021 - 09:00  -6.5°C  -10.7°C  1028.4 hPa  83%  9.0 km/h   18.6 km/h  0%  --  16.1km  58%  Partly Cloudy 
 05/12/2021 - 10:00  -5.9°C  -10.2°C  1029.0 hPa  81%  9.6 km/h   18.2 km/h  0%  --  16.1km  64%  Mostly Cloudy 
 05/12/2021 - 11:00  -5.2°C  -9.4°C  1029.2 hPa  78%  9.5 km/h   17.3 km/h  0%  --  16.1km  86%  Mostly Cloudy 
 05/12/2021 - 12:00  -4.6°C  -8.8°C  1029.0 hPa  74%  10.0 km/h   18.1 km/h  0%  --  16.1km  88%  Overcast 
 05/12/2021 - 13:00  -3.7°C  -7.7°C  1028.2 hPa  72%  9.9 km/h   19.0 km/h  0%  --  16.1km  91%  Overcast 
 05/12/2021 - 14:00  -3.3°C  -7.0°C  1028.1 hPa  69%  9.1 km/h   18.3 km/h  0%  --  16.1km  81%  Mostly Cloudy 
 05/12/2021 - 15:00  -3.1°C  -6.2°C  1028.0 hPa  67%  7.4 km/h   16.7 km/h  0%  --  16.1km  89%  Overcast 
 05/12/2021 - 16:00  -3.1°C  -5.5°C  1027.7 hPa  68%  5.9 km/h   15.0 km/h  0%  --  16.1km  92%  Overcast 
 05/12/2021 - 17:00  -3.1°C  -5.8°C  1027.4 hPa  67%  6.5 km/h   14.7 km/h  0%  --  16.1km  86%  Mostly Cloudy 
 05/12/2021 - 18:00  -3.0°C  -6.6°C  1026.9 hPa  66%  9.3 km/h   17.3 km/h  0%  --  16.1km  91%  Overcast 
 05/12/2021 - 19:00  -3.1°C  -7.4°C  1027.0 hPa  68%  11.6 km/h   22.1 km/h  1%  0.01 mm/h  16.1km  97%  Overcast 
 05/12/2021 - 20:00  -2.9°C  -7.7°C  1025.8 hPa  67%  13.6 km/h   26.3 km/h  3%  0.02 mm/h  16.1km  100%  Overcast 
 05/12/2021 - 21:00  -2.7°C  -7.8°C  1025.1 hPa  68%  15.4 km/h   30.6 km/h  8%  0.11 mm/h  13.7km  100%  Overcast 
 05/12/2021 - 22:00  -2.5°C  -8.2°C  1023.4 hPa  72%  18.7 km/h   35.2 km/h  16%  0.27 mm/h  9.4km  100%  Overcast 
 05/12/2021 - 23:00  -2.2°C  -7.9°C  1021.6 hPa  73%  19.4 km/h   40.7 km/h  27%  0.52 mm/h  9.5km  100%  Snow 
 06/12/2021 - 00:00  -2.0°C  -7.8°C  1019.6 hPa  77%  19.9 km/h   40.3 km/h  40%  1.01 mm/h  10.7km  100%  Snow 
 06/12/2021 - 01:00  -1.5°C  -7.1°C  1017.8 hPa  81%  19.9 km/h   43.9 km/h  43%  1.25 mm/h  9.1km  100%  Snow 
 06/12/2021 - 02:00  -0.2°C  -5.6°C  1015.3 hPa  80%  20.9 km/h   46.9 km/h  44%  1.25 mm/h  16.1km  100%  Rain 
 06/12/2021 - 03:00  0.6°C  -4.5°C  1013.4 hPa  82%  20.2 km/h   44.4 km/h  47%  1.13 mm/h  8.5km  100%  Rain 
 06/12/2021 - 04:00  0.9°C  -4.1°C  1011.4 hPa  89%  20.1 km/h   42.4 km/h  61%  1.18 mm/h  6.0km  100%  Rain 
 06/12/2021 - 05:00  1.4°C  -3.1°C  1009.7 hPa  92%  17.7 km/h   38.2 km/h  67%  1.42 mm/h  8.9km  100%  Rain 
 06/12/2021 - 06:00  2.4°C  -2.2°C  1008.3 hPa  95%  20.4 km/h   42.6 km/h  71%  1.59 mm/h  11.0km  100%  Rain 
 06/12/2021 - 07:00  3.4°C  -1.1°C  1006.7 hPa  99%  21.9 km/h   48.8 km/h  84%  2.21 mm/h  15.6km  100%  Rain 
 06/12/2021 - 08:00  4.4°C  0.0°C  1005.2 hPa  100%  23.6 km/h   49.1 km/h  86%  2.01 mm/h  15.8km  100%  Rain 
 06/12/2021 - 09:00  5.0°C  0.6°C  1003.9 hPa  100%  24.8 km/h   49.0 km/h  85%  1.50 mm/h  16.1km  100%  Rain 
 06/12/2021 - 10:00  6.0°C  2.0°C  1002.4 hPa  97%  23.3 km/h   47.3 km/h  81%  0.86 mm/h  14.1km  100%  Light Rain 
 06/12/2021 - 11:00  7.1°C  3.3°C  999.9 hPa  94%  24.3 km/h   47.6 km/h  58%  0.41 mm/h  13.6km  93%  Possible Light Rain 
 06/12/2021 - 12:00  8.0°C  4.5°C  997.4 hPa  92%  23.5 km/h   46.5 km/h  55%  0.49 mm/h  16.1km  85%  Possible Light Rain 
 06/12/2021 - 13:00  7.7°C  4.1°C  996.9 hPa  93%  23.6 km/h   49.8 km/h  77%  1.03 mm/h  16.1km  80%  Rain 
 06/12/2021 - 14:00  7.8°C  4.2°C  995.3 hPa  97%  24.0 km/h   52.2 km/h  82%  1.16 mm/h  14.9km  85%  Rain 

 

Past weather and reports

Past weatherFind in this section the past weather conditions, weather archive, graphics, reports and statistics.

Current conditions

Current weather condition for MontrealAll you need to know about the current weather conditions for Montreal. Weather data is updated every 10 minutes.

Weather forecast

Current Montreal weatherSince 2004, celinium.com website has provided accurate weather forecast for Montreal's island.